sensor_id;sensor_type;location;lat;lon;timestamp;pressure;altitude;pressure_sealevel;temperature;humidity
7170;BME280;3626;42.656;23.312;2023-02-10T00:00:05;96294.22;;;-7.60;88.81
7170;BME280;3626;42.656;23.312;2023-02-10T00:00:12;96300.94;;;-7.60;88.99
7170;BME280;3626;42.656;23.312;2023-02-10T00:00:19;96303.44;;;-7.60;88.92
7170;BME280;3626;42.656;23.312;2023-02-10T00:00:25;96298.41;;;-7.59;89.09
7170;BME280;3626;42.656;23.312;2023-02-10T00:00:31;96301.72;;;-7.58;89.15
7170;BME280;3626;42.656;23.312;2023-02-10T00:00:37;96300.03;;;-7.58;89.39
7170;BME280;3626;42.656;23.312;2023-02-10T00:00:42;96302.56;;;-7.58;89.11
7170;BME280;3626;42.656;23.312;2023-02-10T00:00:48;96300.03;;;-7.58;89.22
7170;BME280;3626;42.656;23.312;2023-02-10T00:00:54;96295.88;;;-7.59;89.13
7170;BME280;3626;42.656;23.312;2023-02-10T00:01:02;96300.91;;;-7.59;89.30
7170;BME280;3626;42.656;23.312;2023-02-10T00:01:09;96295.88;;;-7.59;89.32
7170;BME280;3626;42.656;23.312;2023-02-10T00:01:17;96300.88;;;-7.57;89.31
7170;BME280;3626;42.656;23.312;2023-02-10T00:01:25;96297.53;;;-7.58;89.14
7170;BME280;3626;42.656;23.312;2023-02-10T00:01:35;96307.53;;;-7.56;88.92
7170;BME280;3626;42.656;23.312;2023-02-10T00:01:41;96302.53;;;-7.56;89.10
7170;BME280;3626;42.656;23.312;2023-02-10T00:01:47;96299.22;;;-7.58;89.30
7170;BME280;3626;42.656;23.312;2023-02-10T00:01:53;96291.66;;;-7.57;89.27
7170;BME280;3626;42.656;23.312;2023-02-10T00:01:59;96302.53;;;-7.56;88.99
7170;BME280;3626;42.656;23.312;2023-02-10T00:02:05;96299.19;;;-7.55;89.39
7170;BME280;3626;42.656;23.312;2023-02-10T00:02:11;96298.34;;;-7.54;89.54
7170;BME280;3626;42.656;23.312;2023-02-10T00:02:16;96293.34;;;-7.56;89.16
7170;BME280;3626;42.656;23.312;2023-02-10T00:02:22;96298.38;;;-7.56;88.98
7170;BME280;3626;42.656;23.312;2023-02-10T00:02:32;96297.50;;;-7.56;89.39
7170;BME280;3626;42.656;23.312;2023-02-10T00:02:38;96299.19;;;-7.55;89.05
7170;BME280;3626;42.656;23.312;2023-02-10T00:02:44;96302.50;;;-7.53;89.60
7170;BME280;3626;42.656;23.312;2023-02-10T00:02:52;96295.84;;;-7.54;89.40
7170;BME280;3626;42.656;23.312;2023-02-10T00:02:59;96300.03;;;-7.58;89.25
7170;BME280;3626;42.656;23.312;2023-02-10T00:03:05;96295.88;;;-7.59;89.22
7170;BME280;3626;42.656;23.312;2023-02-10T00:03:11;96295.03;;;-7.58;89.09
7170;BME280;3626;42.656;23.312;2023-02-10T00:03:17;96300.91;;;-7.59;89.54
7170;BME280;3626;42.656;23.312;2023-02-10T00:03:24;96302.56;;;-7.58;89.25
7170;BME280;3626;42.656;23.312;2023-02-10T00:03:30;96297.50;;;-7.56;89.73
7170;BME280;3626;42.656;23.312;2023-02-10T00:03:36;96294.19;;;-7.57;89.67
7170;BME280;3626;42.656;23.312;2023-02-10T00:03:43;96287.47;;;-7.56;89.60
7170;BME280;3626;42.656;23.312;2023-02-10T00:03:49;96294.19;;;-7.55;89.28
7170;BME280;3626;42.656;23.312;2023-02-10T00:03:56;96298.38;;;-7.56;89.68
7170;BME280;3626;42.656;23.312;2023-02-10T00:04:02;96295.84;;;-7.54;89.10
7170;BME280;3626;42.656;23.312;2023-02-10T00:04:10;96295.81;;;-7.52;89.63
7170;BME280;3626;42.656;23.312;2023-02-10T00:04:17;96294.97;;;-7.51;89.74
7170;BME280;3626;42.656;23.312;2023-02-10T00:04:24;96301.66;;;-7.50;89.57
7170;BME280;3626;42.656;23.312;2023-02-10T00:04:29;96293.31;;;-7.51;89.52
7170;BME280;3626;42.656;23.312;2023-02-10T00:04:35;96300.78;;;-7.49;89.44
7170;BME280;3626;42.656;23.312;2023-02-10T00:04:41;96299.94;;;-7.48;89.23
7170;BME280;3626;42.656;23.312;2023-02-10T00:04:47;96294.94;;;-7.48;89.29
7170;BME280;3626;42.656;23.312;2023-02-10T00:04:53;96299.94;;;-7.48;89.24
7170;BME280;3626;42.656;23.312;2023-02-10T00:04:59;96295.78;;;-7.49;89.27
7170;BME280;3626;42.656;23.312;2023-02-10T00:05:06;96288.28;;;-7.51;89.13
7170;BME280;3626;42.656;23.312;2023-02-10T00:05:12;96293.31;;;-7.51;89.05
7170;BME280;3626;42.656;23.312;2023-02-10T00:05:18;96294.13;;;-7.50;89.11
7170;BME280;3626;42.656;23.312;2023-02-10T00:05:24;96299.13;;;-7.52;89.20
7170;BME280;3626;42.656;23.312;2023-02-10T00:05:30;96304.19;;;-7.53;89.02
7170;BME280;3626;42.656;23.312;2023-02-10T00:05:39;96295.00;;;-7.55;89.11
7170;BME280;3626;42.656;23.312;2023-02-10T00:05:45;96293.34;;;-7.56;88.98
7170;BME280;3626;42.656;23.312;2023-02-10T00:05:51;96295.88;;;-7.56;89.08
7170;BME280;3626;42.656;23.312;2023-02-10T00:05:57;96295.84;;;-7.54;89.05
7170;BME280;3626;42.656;23.312;2023-02-10T00:06:05;96295.88;;;-7.56;89.17
7170;BME280;3626;42.656;23.312;2023-02-10T00:06:12;96292.50;;;-7.55;89.11
7170;BME280;3626;42.656;23.312;2023-02-10T00:06:20;96293.34;;;-7.56;89.25
7170;BME280;3626;42.656;23.312;2023-02-10T00:06:27;96293.34;;;-7.56;89.01
7170;BME280;3626;42.656;23.312;2023-02-10T00:06:33;96294.19;;;-7.55;89.05
7170;BME280;3626;42.656;23.312;2023-02-10T00:06:40;96303.38;;;-7.56;89.04
7170;BME280;3626;42.656;23.312;2023-02-10T00:06:46;96295.84;;;-7.54;89.05
7170;BME280;3626;42.656;23.312;2023-02-10T00:06:52;96293.31;;;-7.54;88.93
7170;BME280;3626;42.656;23.312;2023-02-10T00:06:58;96297.50;;;-7.55;88.79
7170;BME280;3626;42.656;23.312;2023-02-10T00:07:06;96294.16;;;-7.53;89.06
7170;BME280;3626;42.656;23.312;2023-02-10T00:07:12;96297.50;;;-7.53;88.87
7170;BME280;3626;42.656;23.312;2023-02-10T00:07:20;96290.78;;;-7.52;88.75
7170;BME280;3626;42.656;23.312;2023-02-10T00:07:26;96297.50;;;-7.51;89.16
7170;BME280;3626;42.656;23.312;2023-02-10T00:07:32;96297.50;;;-7.51;89.21
7170;BME280;3626;42.656;23.312;2023-02-10T00:07:38;96294.97;;;-7.51;89.08
7170;BME280;3626;42.656;23.312;2023-02-10T00:07:44;96295.81;;;-7.51;88.76
7170;BME280;3626;42.656;23.312;2023-02-10T00:07:50;96287.44;;;-7.50;88.56
7170;BME280;3626;42.656;23.312;2023-02-10T00:07:56;96303.31;;;-7.49;88.74
7170;BME280;3626;42.656;23.312;2023-02-10T00:08:02;96292.41;;;-7.48;88.71
7170;BME280;3626;42.656;23.312;2023-02-10T00:08:08;96298.28;;;-7.49;88.81
7170;BME280;3626;42.656;23.312;2023-02-10T00:08:14;96289.94;;;-7.50;88.77
7170;BME280;3626;42.656;23.312;2023-02-10T00:08:20;96294.94;;;-7.48;88.84
7170;BME280;3626;42.656;23.312;2023-02-10T00:08:26;96294.09;;;-7.47;89.01
7170;BME280;3626;42.656;23.312;2023-02-10T00:08:32;96289.91;;;-7.48;88.98
7170;BME280;3626;42.656;23.312;2023-02-10T00:08:39;96297.44;;;-7.47;89.03
7170;BME280;3626;42.656;23.312;2023-02-10T00:08:50;96289.09;;;-7.49;88.67
7170;BME280;3626;42.656;23.312;2023-02-10T00:08:57;96300.78;;;-7.48;88.99
7170;BME280;3626;42.656;23.312;2023-02-10T00:09:04;96294.94;;;-7.48;88.50
7170;BME280;3626;42.656;23.312;2023-02-10T00:09:12;96294.09;;;-7.49;88.64
7170;BME280;3626;42.656;23.312;2023-02-10T00:09:18;96300.78;;;-7.49;88.81
7170;BME280;3626;42.656;23.312;2023-02-10T00:09:26;96294.13;;;-7.50;88.74
7170;BME280;3626;42.656;23.312;2023-02-10T00:09:32;96299.16;;;-7.50;88.60
7170;BME280;3626;42.656;23.312;2023-02-10T00:09:38;96297.47;;;-7.50;88.52
7170;BME280;3626;42.656;23.312;2023-02-10T00:09:44;96296.63;;;-7.50;88.59
7170;BME280;3626;42.656;23.312;2023-02-10T00:09:50;96297.47;;;-7.50;89.21
7170;BME280;3626;42.656;23.312;2023-02-10T00:09:57;96299.16;;;-7.50;88.60
7170;BME280;3626;42.656;23.312;2023-02-10T00:10:04;96299.16;;;-7.50;89.14
7170;BME280;3626;42.656;23.312;2023-02-10T00:10:10;96300.78;;;-7.49;88.25
7170;BME280;3626;42.656;23.312;2023-02-10T00:10:16;96295.78;;;-7.49;88.53
7170;BME280;3626;42.656;23.312;2023-02-10T00:10:22;96289.91;;;-7.48;88.69
7170;BME280;3626;42.656;23.312;2023-02-10T00:10:28;96293.25;;;-7.48;88.98
7170;BME280;3626;42.656;23.312;2023-02-10T00:10:34;96294.94;;;-7.48;88.47
7170;BME280;3626;42.656;23.312;2023-02-10T00:10:40;96296.63;;;-7.47;88.67
7170;BME280;3626;42.656;23.312;2023-02-10T00:10:45;96296.63;;;-7.47;88.60
7170;BME280;3626;42.656;23.312;2023-02-10T00:10:51;96289.91;;;-7.48;88.59
7170;BME280;3626;42.656;23.312;2023-02-10T00:11:03;96298.25;;;-7.46;88.49
7170;BME280;3626;42.656;23.312;2023-02-10T00:11:10;96301.63;;;-7.47;88.37
7170;BME280;3626;42.656;23.312;2023-02-10T00:11:16;96291.59;;;-7.47;88.39
7170;BME280;3626;42.656;23.312;2023-02-10T00:11:23;96299.09;;;-7.46;88.53
7170;BME280;3626;42.656;23.312;2023-02-10T00:11:52;96297.44;;;-7.47;88.46
7170;BME280;3626;42.656;23.312;2023-02-10T00:12:05;96294.09;;;-7.47;88.34
7170;BME280;3626;42.656;23.312;2023-02-10T00:12:13;96299.94;;;-7.47;88.55
7170;BME280;3626;42.656;23.312;2023-02-10T00:12:19;96299.09;;;-7.46;88.59
7170;BME280;3626;42.656;23.312;2023-02-10T00:12:25;96297.44;;;-7.47;88.18
7170;BME280;3626;42.656;23.312;2023-02-10T00:12:31;96294.06;;;-7.46;88.43
7170;BME280;3626;42.656;23.312;2023-02-10T00:12:37;96294.09;;;-7.47;88.28
7170;BME280;3626;42.656;23.312;2023-02-10T00:12:43;96298.25;;;-7.48;88.40
7170;BME280;3626;42.656;23.312;2023-02-10T00:12:48;96298.25;;;-7.48;88.33
7170;BME280;3626;42.656;23.312;2023-02-10T00:12:54;96294.09;;;-7.49;88.15
7170;BME280;3626;42.656;23.312;2023-02-10T00:13:00;96294.13;;;-7.50;88.22
7170;BME280;3626;42.656;23.312;2023-02-10T00:13:08;96305.00;;;-7.51;88.45
7170;BME280;3626;42.656;23.312;2023-02-10T00:13:15;96298.31;;;-7.52;88.43
7170;BME280;3626;42.656;23.312;2023-02-10T00:13:21;96296.66;;;-7.53;88.57
7170;BME280;3626;42.656;23.312;2023-02-10T00:13:27;96295.81;;;-7.52;88.46
7170;BME280;3626;42.656;23.312;2023-02-10T00:13:33;96289.97;;;-7.53;88.38
7170;BME280;3626;42.656;23.312;2023-02-10T00:13:41;96297.50;;;-7.56;88.37
7170;BME280;3626;42.656;23.312;2023-02-10T00:13:47;96297.53;;;-7.58;88.45
7170;BME280;3626;42.656;23.312;2023-02-10T00:13:52;96292.56;;;-7.59;88.58
7170;BME280;3626;42.656;23.312;2023-02-10T00:13:58;96290.88;;;-7.59;88.60
7170;BME280;3626;42.656;23.312;2023-02-10T00:14:04;96291.69;;;-7.58;88.58
7170;BME280;3626;42.656;23.312;2023-02-10T00:14:10;96289.19;;;-7.58;88.28
7170;BME280;3626;42.656;23.312;2023-02-10T00:14:17;96297.53;;;-7.58;88.37
7170;BME280;3626;42.656;23.312;2023-02-10T00:14:23;96295.88;;;-7.59;88.35
7170;BME280;3626;42.656;23.312;2023-02-10T00:14:30;96290.03;;;-7.59;88.82
7170;BME280;3626;42.656;23.312;2023-02-10T00:14:37;96296.75;;;-7.60;88.90
7170;BME280;3626;42.656;23.312;2023-02-10T00:14:42;96292.56;;;-7.59;88.87
7170;BME280;3626;42.656;23.312;2023-02-10T00:14:48;96283.38;;;-7.62;88.85
7170;BME280;3626;42.656;23.312;2023-02-10T00:14:54;96292.56;;;-7.62;88.54
7170;BME280;3626;42.656;23.312;2023-02-10T00:15:00;96290.91;;;-7.62;88.91
7170;BME280;3626;42.656;23.312;2023-02-10T00:15:06;96293.41;;;-7.62;88.83
7170;BME280;3626;42.656;23.312;2023-02-10T00:15:12;96297.59;;;-7.62;88.95
7170;BME280;3626;42.656;23.312;2023-02-10T00:15:18;96292.56;;;-7.61;88.84
7170;BME280;3626;42.656;23.312;2023-02-10T00:15:23;96294.22;;;-7.61;89.03
7170;BME280;3626;42.656;23.312;2023-02-10T00:15:29;96294.22;;;-7.61;89.04
7170;BME280;3626;42.656;23.312;2023-02-10T00:15:36;96290.91;;;-7.60;89.02
7170;BME280;3626;42.656;23.312;2023-02-10T00:15:44;96295.91;;;-7.60;88.68
7170;BME280;3626;42.656;23.312;2023-02-10T00:15:50;96288.38;;;-7.60;88.86
7170;BME280;3626;42.656;23.312;2023-02-10T00:15:58;96290.03;;;-7.61;88.70
7170;BME280;3626;42.656;23.312;2023-02-10T00:16:05;96295.06;;;-7.61;88.60
7170;BME280;3626;42.656;23.312;2023-02-10T00:16:13;96288.38;;;-7.62;88.93
7170;BME280;3626;42.656;23.312;2023-02-10T00:16:20;96293.41;;;-7.60;88.81
7170;BME280;3626;42.656;23.312;2023-02-10T00:16:26;96285.88;;;-7.60;88.67
7170;BME280;3626;42.656;23.312;2023-02-10T00:16:32;96292.56;;;-7.59;88.77
7170;BME280;3626;42.656;23.312;2023-02-10T00:16:38;96288.38;;;-7.59;89.07
7170;BME280;3626;42.656;23.312;2023-02-10T00:16:44;96289.19;;;-7.58;88.64
7170;BME280;3626;42.656;23.312;2023-02-10T00:16:50;96286.66;;;-7.57;88.94
7170;BME280;3626;42.656;23.312;2023-02-10T00:16:56;96286.66;;;-7.57;89.08
7170;BME280;3626;42.656;23.312;2023-02-10T00:17:03;96288.34;;;-7.56;88.88
7170;BME280;3626;42.656;23.312;2023-02-10T00:17:08;96286.66;;;-7.55;88.79
7170;BME280;3626;42.656;23.312;2023-02-10T00:17:14;96285.81;;;-7.54;88.73
7170;BME280;3626;42.656;23.312;2023-02-10T00:17:22;96288.31;;;-7.54;88.89
7170;BME280;3626;42.656;23.312;2023-02-10T00:17:28;96286.63;;;-7.53;88.91
7170;BME280;3626;42.656;23.312;2023-02-10T00:17:36;96288.28;;;-7.52;88.93
7170;BME280;3626;42.656;23.312;2023-02-10T00:17:42;96286.59;;;-7.52;89.07
7170;BME280;3626;42.656;23.312;2023-02-10T00:17:48;96290.78;;;-7.52;88.79
7170;BME280;3626;42.656;23.312;2023-02-10T00:17:53;96287.47;;;-7.53;88.45
7170;BME280;3626;42.656;23.312;2023-02-10T00:17:59;96287.50;;;-7.55;88.58
7170;BME280;3626;42.656;23.312;2023-02-10T00:18:05;96290.81;;;-7.54;88.30
7170;BME280;3626;42.656;23.312;2023-02-10T00:18:11;96290.81;;;-7.54;88.32
7170;BME280;3626;42.656;23.312;2023-02-10T00:18:16;96282.47;;;-7.55;88.67
7170;BME280;3626;42.656;23.312;2023-02-10T00:18:23;96288.34;;;-7.56;88.57
7170;BME280;3626;42.656;23.312;2023-02-10T00:18:29;96290.00;;;-7.55;88.68
7170;BME280;3626;42.656;23.312;2023-02-10T00:18:35;96289.16;;;-7.55;88.54
7170;BME280;3626;42.656;23.312;2023-02-10T00:18:41;96292.50;;;-7.55;88.52
7170;BME280;3626;42.656;23.312;2023-02-10T00:18:47;96290.00;;;-7.55;88.44
7170;BME280;3626;42.656;23.312;2023-02-10T00:18:52;96286.66;;;-7.57;88.44
7170;BME280;3626;42.656;23.312;2023-02-10T00:18:59;96292.53;;;-7.58;88.69
7170;BME280;3626;42.656;23.312;2023-02-10T00:19:05;96285.88;;;-7.60;88.43
7170;BME280;3626;42.656;23.312;2023-02-10T00:19:11;96285.06;;;-7.62;88.95
7170;BME280;3626;42.656;23.312;2023-02-10T00:19:17;96299.28;;;-7.63;88.54
7170;BME280;3626;42.656;23.312;2023-02-10T00:19:24;96294.28;;;-7.64;88.78
7170;BME280;3626;42.656;23.312;2023-02-10T00:19:30;96287.63;;;-7.67;88.86
7170;BME280;3626;42.656;23.312;2023-02-10T00:19:37;96290.16;;;-7.68;88.68
7170;BME280;3626;42.656;23.312;2023-02-10T00:19:45;96292.66;;;-7.68;88.80
7170;BME280;3626;42.656;23.312;2023-02-10T00:19:50;96292.66;;;-7.68;89.12
7170;BME280;3626;42.656;23.312;2023-02-10T00:19:56;96296.81;;;-7.69;89.35
7170;BME280;3626;42.656;23.312;2023-02-10T00:20:02;96290.13;;;-7.67;89.16
7170;BME280;3626;42.656;23.312;2023-02-10T00:20:09;96292.63;;;-7.67;88.98
7170;BME280;3626;42.656;23.312;2023-02-10T00:20:15;96294.28;;;-7.66;89.55
7170;BME280;3626;42.656;23.312;2023-02-10T00:20:22;96290.13;;;-7.67;89.41
7170;BME280;3626;42.656;23.312;2023-02-10T00:20:28;96290.91;;;-7.65;89.43
7170;BME280;3626;42.656;23.312;2023-02-10T00:20:33;96290.09;;;-7.65;89.54
7170;BME280;3626;42.656;23.312;2023-02-10T00:20:39;96290.13;;;-7.67;89.54
7170;BME280;3626;42.656;23.312;2023-02-10T00:20:45;96292.63;;;-7.67;89.12
7170;BME280;3626;42.656;23.312;2023-02-10T00:20:51;96290.94;;;-7.66;89.50
7170;BME280;3626;42.656;23.312;2023-02-10T00:21:04;96290.09;;;-7.65;89.48
7170;BME280;3626;42.656;23.312;2023-02-10T00:21:13;96290.09;;;-7.65;89.27
7170;BME280;3626;42.656;23.312;2023-02-10T00:21:19;96284.25;;;-7.64;89.65
7170;BME280;3626;42.656;23.312;2023-02-10T00:21:24;96285.09;;;-7.64;89.29
7170;BME280;3626;42.656;23.312;2023-02-10T00:21:30;96290.06;;;-7.62;89.26
7170;BME280;3626;42.656;23.312;2023-02-10T00:21:36;96292.56;;;-7.62;89.18
7170;BME280;3626;42.656;23.312;2023-02-10T00:21:44;96287.56;;;-7.62;89.70
7170;BME280;3626;42.656;23.312;2023-02-10T00:21:51;96286.72;;;-7.61;89.80
7170;BME280;3626;42.656;23.312;2023-02-10T00:21:57;96288.41;;;-7.63;89.17
7170;BME280;3626;42.656;23.312;2023-02-10T00:22:03;96292.59;;;-7.64;89.58
7170;BME280;3626;42.656;23.312;2023-02-10T00:22:09;96290.09;;;-7.64;89.49
7170;BME280;3626;42.656;23.312;2023-02-10T00:22:15;96284.25;;;-7.66;89.78
7170;BME280;3626;42.656;23.312;2023-02-10T00:22:21;96290.94;;;-7.66;89.75
7170;BME280;3626;42.656;23.312;2023-02-10T00:22:26;96294.28;;;-7.66;89.61
7170;BME280;3626;42.656;23.312;2023-02-10T00:22:32;96288.41;;;-7.65;89.99
7170;BME280;3626;42.656;23.312;2023-02-10T00:22:38;96285.91;;;-7.65;89.82
7170;BME280;3626;42.656;23.312;2023-02-10T00:22:43;96293.44;;;-7.65;89.53
7170;BME280;3626;42.656;23.312;2023-02-10T00:22:51;96290.91;;;-7.65;89.35
7170;BME280;3626;42.656;23.312;2023-02-10T00:22:57;96290.94;;;-7.63;89.69
7170;BME280;3626;42.656;23.312;2023-02-10T00:23:02;96296.78;;;-7.64;89.62
7170;BME280;3626;42.656;23.312;2023-02-10T00:23:08;96284.22;;;-7.63;89.75
7170;BME280;3626;42.656;23.312;2023-02-10T00:23:14;96289.25;;;-7.63;89.36
7170;BME280;3626;42.656;23.312;2023-02-10T00:23:21;96281.72;;;-7.63;89.70
7170;BME280;3626;42.656;23.312;2023-02-10T00:23:26;96287.53;;;-7.61;89.67
7170;BME280;3626;42.656;23.312;2023-02-10T00:23:32;96290.03;;;-7.61;89.25
7170;BME280;3626;42.656;23.312;2023-02-10T00:23:38;96295.91;;;-7.62;89.51
7170;BME280;3626;42.656;23.312;2023-02-10T00:23:44;96285.06;;;-7.62;89.72
7170;BME280;3626;42.656;23.312;2023-02-10T00:23:49;96296.75;;;-7.60;89.38
7170;BME280;3626;42.656;23.312;2023-02-10T00:23:55;96290.03;;;-7.61;89.49
7170;BME280;3626;42.656;23.312;2023-02-10T00:24:02;96292.56;;;-7.61;89.44
7170;BME280;3626;42.656;23.312;2023-02-10T00:24:08;96291.72;;;-7.60;89.52
7170;BME280;3626;42.656;23.312;2023-02-10T00:24:14;96286.72;;;-7.60;89.55
7170;BME280;3626;42.656;23.312;2023-02-10T00:24:20;96288.38;;;-7.60;89.31
7170;BME280;3626;42.656;23.312;2023-02-10T00:24:26;96290.03;;;-7.59;89.25
7170;BME280;3626;42.656;23.312;2023-02-10T00:24:32;96291.72;;;-7.60;89.33
7170;BME280;3626;42.656;23.312;2023-02-10T00:24:39;96293.38;;;-7.59;89.20
7170;BME280;3626;42.656;23.312;2023-02-10T00:24:45;96285.84;;;-7.59;89.57
7170;BME280;3626;42.656;23.312;2023-02-10T00:24:52;96291.72;;;-7.60;89.61
7170;BME280;3626;42.656;23.312;2023-02-10T00:24:59;96294.22;;;-7.60;89.44
7170;BME280;3626;42.656;23.312;2023-02-10T00:25:05;96289.22;;;-7.60;89.37
7170;BME280;3626;42.656;23.312;2023-02-10T00:25:11;96290.06;;;-7.62;89.49
7170;BME280;3626;42.656;23.312;2023-02-10T00:25:17;96290.09;;;-7.64;89.51
7170;BME280;3626;42.656;23.312;2023-02-10T00:25:24;96292.63;;;-7.67;89.65
7170;BME280;3626;42.656;23.312;2023-02-10T00:25:30;96290.16;;;-7.68;89.39
7170;BME280;3626;42.656;23.312;2023-02-10T00:25:36;96287.63;;;-7.70;89.24
7170;BME280;3626;42.656;23.312;2023-02-10T00:25:42;96286.00;;;-7.72;89.41
7170;BME280;3626;42.656;23.312;2023-02-10T00:25:47;96294.34;;;-7.73;89.83
7170;BME280;3626;42.656;23.312;2023-02-10T00:25:55;96291.03;;;-7.75;89.69
7170;BME280;3626;42.656;23.312;2023-02-10T00:26:02;96295.22;;;-7.77;90.19
7170;BME280;3626;42.656;23.312;2023-02-10T00:26:10;96286.91;;;-7.80;89.66
7170;BME280;3626;42.656;23.312;2023-02-10T00:26:20;96293.59;;;-7.82;89.97
7170;BME280;3626;42.656;23.312;2023-02-10T00:26:26;96293.63;;;-7.83;90.33
7170;BME280;3626;42.656;23.312;2023-02-10T00:26:32;96300.28;;;-7.82;89.99
7170;BME280;3626;42.656;23.312;2023-02-10T00:26:38;96292.78;;;-7.82;90.75
7170;BME280;3626;42.656;23.312;2023-02-10T00:26:44;96292.78;;;-7.82;90.43
7170;BME280;3626;42.656;23.312;2023-02-10T00:26:49;96296.09;;;-7.80;90.83
7170;BME280;3626;42.656;23.312;2023-02-10T00:26:57;96293.59;;;-7.80;90.41
7170;BME280;3626;42.656;23.312;2023-02-10T00:27:03;96290.25;;;-7.79;90.51
7170;BME280;3626;42.656;23.312;2023-02-10T00:27:09;96294.41;;;-7.78;90.87
7170;BME280;3626;42.656;23.312;2023-02-10T00:27:14;96291.06;;;-7.77;90.67
7170;BME280;3626;42.656;23.312;2023-02-10T00:27:26;96290.22;;;-7.76;90.92
7170;BME280;3626;42.656;23.312;2023-02-10T00:27:31;96286.03;;;-7.75;90.48
7170;BME280;3626;42.656;23.312;2023-02-10T00:27:37;96291.03;;;-7.74;90.55
7170;BME280;3626;42.656;23.312;2023-02-10T00:27:43;96286.03;;;-7.75;91.08
7170;BME280;3626;42.656;23.312;2023-02-10T00:27:49;96283.50;;;-7.74;90.75
7170;BME280;3626;42.656;23.312;2023-02-10T00:27:54;96290.19;;;-7.73;90.79
7170;BME280;3626;42.656;23.312;2023-02-10T00:28:00;96291.03;;;-7.72;90.68
7170;BME280;3626;42.656;23.312;2023-02-10T00:28:06;96294.34;;;-7.72;91.18
7170;BME280;3626;42.656;23.312;2023-02-10T00:28:12;96291.84;;;-7.72;90.96
7170;BME280;3626;42.656;23.312;2023-02-10T00:28:18;96292.69;;;-7.71;90.93
7170;BME280;3626;42.656;23.312;2023-02-10T00:28:23;96282.66;;;-7.71;90.82
7170;BME280;3626;42.656;23.312;2023-02-10T00:28:29;96283.47;;;-7.71;90.59
7170;BME280;3626;42.656;23.312;2023-02-10T00:28:35;96288.50;;;-7.71;90.36
7170;BME280;3626;42.656;23.312;2023-02-10T00:28:41;96286.84;;;-7.72;90.40
7170;BME280;3626;42.656;23.312;2023-02-10T00:28:47;96288.50;;;-7.71;90.78
7170;BME280;3626;42.656;23.312;2023-02-10T00:28:52;96287.63;;;-7.70;90.45
7170;BME280;3626;42.656;23.312;2023-02-10T00:28:58;96281.78;;;-7.70;90.59
7170;BME280;3626;42.656;23.312;2023-02-10T00:29:07;96295.16;;;-7.70;90.30
7170;BME280;3626;42.656;23.312;2023-02-10T00:29:13;96290.97;;;-7.69;90.61
7170;BME280;3626;42.656;23.312;2023-02-10T00:29:19;96286.81;;;-7.70;90.67
7170;BME280;3626;42.656;23.312;2023-02-10T00:29:25;96293.50;;;-7.71;90.80
7170;BME280;3626;42.656;23.312;2023-02-10T00:29:31;96281.00;;;-7.72;90.37
7170;BME280;3626;42.656;23.312;2023-02-10T00:29:38;96286.81;;;-7.70;90.55
7170;BME280;3626;42.656;23.312;2023-02-10T00:29:44;96284.31;;;-7.70;90.36
7170;BME280;3626;42.656;23.312;2023-02-10T00:29:50;96291.78;;;-7.69;90.61
7170;BME280;3626;42.656;23.312;2023-02-10T00:29:56;96280.13;;;-7.70;90.82
7170;BME280;3626;42.656;23.312;2023-02-10T00:30:02;96281.78;;;-7.69;90.77
7170;BME280;3626;42.656;23.312;2023-02-10T00:30:09;96284.28;;;-7.69;90.90
7170;BME280;3626;42.656;23.312;2023-02-10T00:30:15;96282.63;;;-7.68;90.64
7170;BME280;3626;42.656;23.312;2023-02-10T00:30:21;96280.13;;;-7.68;90.74
7170;BME280;3626;42.656;23.312;2023-02-10T00:30:30;96285.97;;;-7.71;90.49
7170;BME280;3626;42.656;23.312;2023-02-10T00:30:37;96281.81;;;-7.73;90.56
7170;BME280;3626;42.656;23.312;2023-02-10T00:30:43;96278.50;;;-7.74;90.70
7170;BME280;3626;42.656;23.312;2023-02-10T00:30:49;96288.50;;;-7.74;90.67
7170;BME280;3626;42.656;23.312;2023-02-10T00:30:55;96291.84;;;-7.73;90.95
7170;BME280;3626;42.656;23.312;2023-02-10T00:31:05;96289.38;;;-7.75;90.70
7170;BME280;3626;42.656;23.312;2023-02-10T00:31:12;96286.03;;;-7.75;90.88
7170;BME280;3626;42.656;23.312;2023-02-10T00:31:19;96283.53;;;-7.75;90.82
7170;BME280;3626;42.656;23.312;2023-02-10T00:31:26;96287.69;;;-7.74;90.72
7170;BME280;3626;42.656;23.312;2023-02-10T00:31:32;96286.03;;;-7.75;91.03
7170;BME280;3626;42.656;23.312;2023-02-10T00:31:38;96293.53;;;-7.74;90.94
7170;BME280;3626;42.656;23.312;2023-02-10T00:31:44;96291.84;;;-7.73;91.17
7170;BME280;3626;42.656;23.312;2023-02-10T00:31:51;96279.34;;;-7.75;90.88
7170;BME280;3626;42.656;23.312;2023-02-10T00:31:57;96286.03;;;-7.75;91.30
7170;BME280;3626;42.656;23.312;2023-02-10T00:32:06;96286.03;;;-7.75;90.84
7170;BME280;3626;42.656;23.312;2023-02-10T00:32:12;96288.56;;;-7.77;90.60
7170;BME280;3626;42.656;23.312;2023-02-10T00:32:18;96286.06;;;-7.77;91.02
7170;BME280;3626;42.656;23.312;2023-02-10T00:32:24;96282.69;;;-7.76;90.81
7170;BME280;3626;42.656;23.312;2023-02-10T00:32:32;96281.84;;;-7.75;90.90
7170;BME280;3626;42.656;23.312;2023-02-10T00:32:42;96292.69;;;-7.74;91.07
7170;BME280;3626;42.656;23.312;2023-02-10T00:32:47;96286.03;;;-7.75;90.99
7170;BME280;3626;42.656;23.312;2023-02-10T00:32:56;96287.72;;;-7.76;91.16
7170;BME280;3626;42.656;23.312;2023-02-10T00:33:02;96292.75;;;-7.79;91.26
7170;BME280;3626;42.656;23.312;2023-02-10T00:33:11;96288.59;;;-7.80;91.43
7170;BME280;3626;42.656;23.312;2023-02-10T00:33:17;96283.56;;;-7.80;91.48
7170;BME280;3626;42.656;23.312;2023-02-10T00:33:24;96285.25;;;-7.81;91.36
7170;BME280;3626;42.656;23.312;2023-02-10T00:33:31;96287.72;;;-7.79;91.58
7170;BME280;3626;42.656;23.312;2023-02-10T00:33:41;96287.72;;;-7.77;91.06
7170;BME280;3626;42.656;23.312;2023-02-10T00:33:47;96280.19;;;-7.77;91.20
7170;BME280;3626;42.656;23.312;2023-02-10T00:33:53;96278.53;;;-7.77;91.48
7170;BME280;3626;42.656;23.312;2023-02-10T00:33:59;96286.88;;;-7.76;91.68
7170;BME280;3626;42.656;23.312;2023-02-10T00:34:05;96287.72;;;-7.77;91.34
7170;BME280;3626;42.656;23.312;2023-02-10T00:34:12;96286.06;;;-7.77;91.43
7170;BME280;3626;42.656;23.312;2023-02-10T00:34:18;96276.03;;;-7.77;91.26
7170;BME280;3626;42.656;23.312;2023-02-10T00:34:24;96284.38;;;-7.76;91.94
7170;BME280;3626;42.656;23.312;2023-02-10T00:34:31;96286.84;;;-7.75;91.83
7170;BME280;3626;42.656;23.312;2023-02-10T00:34:37;96283.50;;;-7.74;91.70
7170;BME280;3626;42.656;23.312;2023-02-10T00:34:44;96288.50;;;-7.74;91.89
7170;BME280;3626;42.656;23.312;2023-02-10T00:34:50;96281.00;;;-7.74;91.70
7170;BME280;3626;42.656;23.312;2023-02-10T00:34:56;96285.19;;;-7.74;91.47
7170;BME280;3626;42.656;23.312;2023-02-10T00:35:02;96273.50;;;-7.75;91.60
7170;BME280;3626;42.656;23.312;2023-02-10T00:35:08;96276.03;;;-7.77;91.44